Northway, Alaska
Current Conditions -  °F | °C
As of 5:53 PM on Wednesday 22 Oct 2014 (Local Time) from PAOR Reporting Station
Light Snow Light Snow  
Wind Chill: -6°   Ceiling: 2600
Heat Index: -2°   Visibility: 1.2mi
Dew Point: -3°   Wind: 7mph
Humidity: 92%   Direction: 310°NW
Pressure: 29.46"   Gusts: NA
Location:  62.95°N, 141.93°W
Report Text: PAOR 230153Z 31006KT 1 1/4SM -SN SCT006 BKN026 OVC035 M02/M03 A2946 RMK AO2 SLP009 T10221033
Loading
Personal Weather Stations






























Interactive Weather Map
Tropical Storm Tracking
New forecast layout! Learn more

10-Day Weather Forecast

Advertisements
Track Severe Weather on mobile